createdAt,value
2017-05-16T00:00:29.095Z,1030.54
2017-05-16T00:01:30.938Z,1030.53
2017-05-16T00:02:32.778Z,1030.53
2017-05-16T00:03:34.624Z,1030.55
2017-05-16T00:04:36.666Z,1030.53
2017-05-16T00:05:38.512Z,1030.55
2017-05-16T00:06:40.352Z,1030.57
2017-05-16T00:07:42.198Z,1030.53
2017-05-16T00:08:44.045Z,1030.55
2017-05-16T00:09:45.989Z,1030.55
2017-05-16T00:10:47.830Z,1030.55
2017-05-16T00:11:49.670Z,1030.51
2017-05-16T00:12:51.516Z,1030.51
2017-05-16T00:13:53.355Z,1030.50
2017-05-16T00:14:55.409Z,1030.49
2017-05-16T00:15:57.243Z,1030.49
2017-05-16T00:16:59.090Z,1030.49
2017-05-16T00:18:00.933Z,1030.48
2017-05-16T00:19:02.774Z,1030.51
2017-05-16T00:20:04.615Z,1030.49
2017-05-16T00:21:06.463Z,1030.51
2017-05-16T00:22:08.303Z,1030.48
2017-05-16T00:23:10.142Z,1030.48
2017-05-16T00:24:11.979Z,1030.54
2017-05-16T00:25:14.103Z,1030.56
2017-05-16T00:26:15.938Z,1030.57
2017-05-16T00:27:17.758Z,1030.55
2017-05-16T00:28:19.594Z,1030.64
2017-05-16T00:29:21.416Z,1030.57
2017-05-16T00:30:23.328Z,1030.54
2017-05-16T00:31:25.173Z,1030.54
2017-05-16T00:32:27.018Z,1030.54
2017-05-16T00:33:28.858Z,1030.53
2017-05-16T00:34:30.700Z,1030.57
2017-05-16T00:35:32.768Z,1030.53
2017-05-16T00:36:34.608Z,1030.55
2017-05-16T00:37:36.448Z,1030.56
2017-05-16T00:38:38.293Z,1030.52
2017-05-16T00:39:40.110Z,1030.52
2017-05-16T00:40:41.946Z,1030.55
2017-05-16T00:41:43.760Z,1030.52
2017-05-16T00:42:45.578Z,1030.54
2017-05-16T00:43:47.425Z,1030.52
2017-05-16T00:44:49.263Z,1030.52
2017-05-16T00:45:51.279Z,1030.49
2017-05-16T00:46:53.100Z,1030.54
2017-05-16T00:47:54.936Z,1030.49
2017-05-16T00:48:56.780Z,1030.45
2017-05-16T00:49:58.586Z,1030.49
2017-05-16T00:51:00.506Z,1030.54
2017-05-16T00:52:02.323Z,1030.48
2017-05-16T00:53:04.162Z,1030.48
2017-05-16T00:54:06.007Z,1030.46
2017-05-16T00:55:07.847Z,1030.44
2017-05-16T00:56:09.952Z,1030.47
2017-05-16T00:57:11.783Z,1030.44
2017-05-16T00:58:13.618Z,1030.45
2017-05-16T00:59:15.455Z,1030.46
2017-05-16T01:00:17.275Z,1030.44
2017-05-16T01:01:19.144Z,1030.43
2017-05-16T01:02:20.983Z,1030.45
2017-05-16T01:03:22.802Z,1030.47
2017-05-16T01:04:24.642Z,1030.42
2017-05-16T01:05:26.485Z,1030.44
2017-05-16T01:06:28.522Z,1030.42
2017-05-16T01:07:30.367Z,1030.36
2017-05-16T01:08:32.213Z,1030.37
2017-05-16T01:09:34.050Z,1030.40
2017-05-16T01:10:35.869Z,1030.39
2017-05-16T01:11:37.812Z,1030.36
2017-05-16T01:12:39.623Z,1030.34
2017-05-16T01:13:41.468Z,1030.35
2017-05-16T01:14:43.310Z,1030.37
2017-05-16T01:15:45.122Z,1030.38
2017-05-16T01:16:47.145Z,1030.38
2017-05-16T01:17:48.985Z,1030.39
2017-05-16T01:18:50.827Z,1030.37
2017-05-16T01:19:52.661Z,1030.33
2017-05-16T01:20:54.505Z,1030.36
2017-05-16T01:21:56.546Z,1030.38
2017-05-16T01:22:58.363Z,1030.35
2017-05-16T01:24:00.181Z,1030.35
2017-05-16T01:25:02.022Z,1030.37
2017-05-16T01:26:03.859Z,1030.37
2017-05-16T01:27:05.726Z,1030.32
2017-05-16T01:28:07.544Z,1030.32
2017-05-16T01:29:09.389Z,1030.32
2017-05-16T01:30:11.204Z,1030.34
2017-05-16T01:31:13.047Z,1030.33
2017-05-16T01:32:15.241Z,1030.33
2017-05-16T01:33:17.080Z,1030.35
2017-05-16T01:34:18.920Z,1030.34
2017-05-16T01:35:20.740Z,1030.34
2017-05-16T01:36:22.552Z,1030.35
2017-05-16T01:37:24.401Z,1030.35
2017-05-16T01:38:26.236Z,1030.30
2017-05-16T01:39:28.052Z,1030.33
2017-05-16T01:40:29.896Z,1030.27
2017-05-16T01:41:31.705Z,1030.28
2017-05-16T01:42:33.823Z,1030.29
2017-05-16T01:43:35.642Z,1030.28
2017-05-16T01:44:37.496Z,1030.30
2017-05-16T01:45:39.319Z,1030.25
2017-05-16T01:46:41.130Z,1030.26
2017-05-16T01:47:42.977Z,1030.21
2017-05-16T01:48:44.814Z,1030.25
2017-05-16T01:49:46.631Z,1030.23
2017-05-16T01:50:48.466Z,1030.21
2017-05-16T01:51:50.285Z,1030.22
2017-05-16T01:52:52.428Z,1030.26
2017-05-16T01:53:54.264Z,1030.25
2017-05-16T01:54:56.081Z,1030.28
2017-05-16T01:55:57.901Z,1030.28
2017-05-16T01:56:59.739Z,1030.31
2017-05-16T01:58:01.558Z,1030.25
2017-05-16T01:59:03.372Z,1030.25
2017-05-16T02:00:05.213Z,1030.24
2017-05-16T02:01:07.056Z,1030.23
2017-05-16T02:02:08.902Z,1030.27
2017-05-16T02:03:10.938Z,1030.28
2017-05-16T02:04:12.755Z,1030.33
2017-05-16T02:05:14.596Z,1030.31
2017-05-16T02:06:16.437Z,1030.32
2017-05-16T02:07:18.250Z,1030.33
2017-05-16T02:08:20.092Z,1030.34
2017-05-16T02:09:21.912Z,1030.36
2017-05-16T02:10:23.753Z,1030.34
2017-05-16T02:11:25.597Z,1030.33
2017-05-16T02:12:27.437Z,1030.34
2017-05-16T02:13:29.574Z,1030.36
2017-05-16T02:14:31.399Z,1030.36
2017-05-16T02:15:33.229Z,1030.35
2017-05-16T02:16:35.051Z,1030.36
2017-05-16T02:17:36.867Z,1030.33
2017-05-16T02:18:38.708Z,1030.40
2017-05-16T02:19:40.552Z,1030.38
2017-05-16T02:20:42.373Z,1030.38
2017-05-16T02:21:44.201Z,1030.42
2017-05-16T02:22:46.047Z,1030.40
2017-05-16T02:23:48.189Z,1030.39
2017-05-16T02:24:50.027Z,1030.38
2017-05-16T02:25:51.842Z,1030.39
2017-05-16T02:26:53.686Z,1030.37
2017-05-16T02:27:55.529Z,1030.37
2017-05-16T02:28:57.368Z,1030.36
2017-05-16T02:29:59.186Z,1030.34
2017-05-16T02:31:01.030Z,1030.34
2017-05-16T02:32:02.866Z,1030.34
2017-05-16T02:33:04.708Z,1030.34
2017-05-16T02:34:06.847Z,1030.35
2017-05-16T02:35:08.665Z,1030.32
2017-05-16T02:36:10.506Z,1030.32
2017-05-16T02:37:12.317Z,1030.34
2017-05-16T02:38:14.136Z,1030.32
2017-05-16T02:39:15.977Z,1030.30
2017-05-16T02:40:17.817Z,1030.28
2017-05-16T02:41:19.633Z,1030.27
2017-05-16T02:42:21.474Z,1030.28
2017-05-16T02:43:23.326Z,1030.32
2017-05-16T02:44:25.363Z,1030.27
2017-05-16T02:45:27.209Z,1030.31
2017-05-16T02:46:29.057Z,1030.34
2017-05-16T02:47:30.893Z,1030.31
2017-05-16T02:48:32.709Z,1030.34
2017-05-16T02:49:34.557Z,1030.35
2017-05-16T02:50:36.396Z,1030.35
2017-05-16T02:51:38.237Z,1030.34
2017-05-16T02:52:40.085Z,1030.34
2017-05-16T02:53:41.925Z,1030.36
2017-05-16T02:54:44.069Z,1030.39
2017-05-16T02:55:45.907Z,1030.34
2017-05-16T02:56:47.722Z,1030.41
2017-05-16T02:57:49.543Z,1030.40
2017-05-16T02:58:51.360Z,1030.38
2017-05-16T02:59:53.203Z,1030.40
2017-05-16T03:00:55.041Z,1030.43
2017-05-16T03:01:56.862Z,1030.42
2017-05-16T03:02:58.706Z,1030.41
2017-05-16T03:04:00.524Z,1030.44
2017-05-16T03:05:02.368Z,1030.46
2017-05-16T03:06:04.187Z,1030.45
2017-05-16T03:07:06.034Z,1030.51
2017-05-16T03:08:07.924Z,1030.52
2017-05-16T03:09:09.722Z,1030.52
2017-05-16T03:10:11.589Z,1030.53
2017-05-16T03:11:13.435Z,1030.49
2017-05-16T03:12:15.280Z,1030.52
2017-05-16T03:13:17.121Z,1030.52
2017-05-16T03:14:18.947Z,1030.52
2017-05-16T03:15:21.192Z,1030.48
2017-05-16T03:16:23.044Z,1030.45
2017-05-16T03:17:24.882Z,1030.47
2017-05-16T03:18:26.727Z,1030.50
2017-05-16T03:19:28.578Z,1030.53
2017-05-16T03:20:30.424Z,1030.50
2017-05-16T03:21:32.263Z,1030.52
2017-05-16T03:22:34.104Z,1030.51
2017-05-16T03:23:35.949Z,1030.54
2017-05-16T03:24:37.764Z,1030.54
2017-05-16T03:25:39.812Z,1030.58
2017-05-16T03:26:41.658Z,1030.56
2017-05-16T03:27:43.502Z,1030.59
2017-05-16T03:28:45.319Z,1030.57
2017-05-16T03:29:47.168Z,1030.59
2017-05-16T03:30:49.008Z,1030.62
2017-05-16T03:31:50.831Z,1030.64
2017-05-16T03:32:52.675Z,1030.64
2017-05-16T03:33:54.495Z,1030.66
2017-05-16T03:34:56.334Z,1030.65
2017-05-16T03:35:58.660Z,1030.64
2017-05-16T03:37:00.485Z,1030.62
2017-05-16T03:38:02.322Z,1030.67
2017-05-16T03:39:04.152Z,1030.63
2017-05-16T03:40:05.989Z,1030.62
2017-05-16T03:41:07.814Z,1030.65
2017-05-16T03:42:09.633Z,1030.65
2017-05-16T03:43:11.452Z,1030.67
2017-05-16T03:44:13.300Z,1030.62
2017-05-16T03:45:15.146Z,1030.68
2017-05-16T03:46:17.012Z,1030.68
2017-05-16T03:47:18.831Z,1030.65
2017-05-16T03:48:20.653Z,1030.68
2017-05-16T03:49:22.496Z,1030.69
2017-05-16T03:50:24.346Z,1030.68
2017-05-16T03:51:26.492Z,1030.66
2017-05-16T03:52:28.335Z,1030.70
2017-05-16T03:53:30.189Z,1030.64
2017-05-16T03:54:32.041Z,1030.68
2017-05-16T03:55:33.889Z,1030.68
2017-05-16T03:56:35.712Z,1030.69
2017-05-16T03:57:37.552Z,1030.63
2017-05-16T03:58:39.403Z,1030.69
2017-05-16T03:59:41.256Z,1030.68
2017-05-16T04:00:43.099Z,1030.74
2017-05-16T04:01:45.217Z,1030.67
2017-05-16T04:02:47.035Z,1030.67
2017-05-16T04:03:48.853Z,1030.71
2017-05-16T04:04:50.674Z,1030.68
2017-05-16T04:05:52.526Z,1030.69
2017-05-16T04:06:54.375Z,1030.78
2017-05-16T04:07:56.215Z,1030.78
2017-05-16T04:08:58.042Z,1030.78
2017-05-16T04:09:59.855Z,1030.78
2017-05-16T04:11:01.676Z,1030.83
2017-05-16T04:12:03.802Z,1030.85
2017-05-16T04:13:05.646Z,1030.87
2017-05-16T04:14:07.492Z,1030.90
2017-05-16T04:15:09.316Z,1030.90
2017-05-16T04:16:11.160Z,1030.93
2017-05-16T04:17:13.023Z,1030.89
2017-05-16T04:18:14.863Z,1030.89
2017-05-16T04:19:16.713Z,1030.96
2017-05-16T04:20:18.538Z,1030.95
2017-05-16T04:21:20.352Z,1030.97
2017-05-16T04:22:22.502Z,1031.02
2017-05-16T04:23:24.329Z,1031.01
2017-05-16T04:24:26.179Z,1031.06
2017-05-16T04:25:28.025Z,1030.99
2017-05-16T04:26:29.851Z,1031.05
2017-05-16T04:27:31.890Z,1031.03
2017-05-16T04:28:33.721Z,1031.02
2017-05-16T04:29:35.565Z,1030.99
2017-05-16T04:30:37.388Z,1031.10
2017-05-16T04:31:39.237Z,1031.09
2017-05-16T04:32:41.190Z,1031.11
2017-05-16T04:33:43.042Z,1031.13
2017-05-16T04:34:44.884Z,1031.12
2017-05-16T04:35:46.734Z,1031.15
2017-05-16T04:36:48.589Z,1031.19
2017-05-16T04:37:50.437Z,1031.18
2017-05-16T04:38:52.285Z,1031.19
2017-05-16T04:39:54.109Z,1031.16
2017-05-16T04:40:55.934Z,1031.21
2017-05-16T04:41:57.761Z,1031.18
2017-05-16T04:42:59.811Z,1031.18
2017-05-16T04:44:01.664Z,1031.18
2017-05-16T04:45:03.513Z,1031.21
2017-05-16T04:46:05.363Z,1031.22
2017-05-16T04:47:07.210Z,1031.23
2017-05-16T04:48:09.088Z,1031.25
2017-05-16T04:49:10.920Z,1031.23
2017-05-16T04:50:12.766Z,1031.22
2017-05-16T04:51:14.595Z,1031.25
2017-05-16T04:52:16.414Z,1031.19
2017-05-16T04:53:18.344Z,1031.21
2017-05-16T04:54:20.197Z,1031.22
2017-05-16T04:55:22.048Z,1031.18
2017-05-16T04:56:23.902Z,1031.23
2017-05-16T04:57:25.734Z,1031.23
2017-05-16T04:58:27.587Z,1031.21
2017-05-16T04:59:29.413Z,1031.18
2017-05-16T05:00:31.242Z,1031.23
2017-05-16T05:01:33.090Z,1031.20
2017-05-16T05:02:34.948Z,1031.20
2017-05-16T05:03:36.801Z,1031.19
2017-05-16T05:04:38.647Z,1031.22
2017-05-16T05:05:40.481Z,1031.17
2017-05-16T05:06:42.330Z,1031.14
2017-05-16T05:07:44.184Z,1031.12
2017-05-16T05:08:46.208Z,1031.13
2017-05-16T05:09:48.045Z,1031.13
2017-05-16T05:10:49.889Z,1031.06
2017-05-16T05:11:51.744Z,1031.09
2017-05-16T05:12:53.596Z,1031.06
2017-05-16T05:13:55.554Z,1031.04
2017-05-16T05:14:57.406Z,1031.07
2017-05-16T05:15:59.259Z,1031.04
2017-05-16T05:17:01.111Z,1031.06
2017-05-16T05:18:02.936Z,1031.10
2017-05-16T05:19:04.985Z,1031.10
2017-05-16T05:20:06.817Z,1031.07
2017-05-16T05:21:08.653Z,1031.10
2017-05-16T05:22:10.467Z,1031.09
2017-05-16T05:23:12.320Z,1031.10
2017-05-16T05:24:14.167Z,1031.08
2017-05-16T05:25:15.990Z,1031.14
2017-05-16T05:26:17.813Z,1031.14
2017-05-16T05:27:19.664Z,1031.13
2017-05-16T05:28:21.487Z,1031.11
2017-05-16T05:29:23.345Z,1031.12
2017-05-16T05:30:25.236Z,1031.15
2017-05-16T05:31:27.042Z,1031.12
2017-05-16T05:32:28.892Z,1031.10
2017-05-16T05:33:30.743Z,1031.12
2017-05-16T05:34:32.898Z,1031.14
2017-05-16T05:35:34.750Z,1031.13
2017-05-16T05:36:36.579Z,1031.12
2017-05-16T05:37:38.402Z,1031.09
2017-05-16T05:38:40.252Z,1031.10
2017-05-16T05:39:42.199Z,1031.11
2017-05-16T05:40:44.022Z,1031.11
2017-05-16T05:41:45.851Z,1031.13
2017-05-16T05:42:47.696Z,1031.12
2017-05-16T05:43:49.521Z,1031.17
2017-05-16T05:44:51.382Z,1031.16
2017-05-16T05:45:53.219Z,1031.15
2017-05-16T05:46:55.045Z,1031.12
2017-05-16T05:47:56.868Z,1031.15
2017-05-16T05:48:58.693Z,1031.18
2017-05-16T05:50:00.562Z,1031.20
2017-05-16T05:51:02.416Z,1031.20
2017-05-16T05:52:04.262Z,1031.20
2017-05-16T05:53:06.092Z,1031.21
2017-05-16T05:54:07.941Z,1031.21
2017-05-16T05:55:10.157Z,1031.19
2017-05-16T05:56:11.983Z,1031.19
2017-05-16T05:57:13.837Z,1031.20
2017-05-16T05:58:15.685Z,1031.24
2017-05-16T05:59:17.509Z,1031.25
2017-05-16T06:00:19.361Z,1031.25
2017-05-16T06:01:21.203Z,1031.27
2017-05-16T06:02:23.051Z,1031.29
2017-05-16T06:03:24.878Z,1031.33
2017-05-16T06:04:26.731Z,1031.35
2017-05-16T06:05:28.677Z,1031.36
2017-05-16T06:06:30.528Z,1031.32
2017-05-16T06:07:32.381Z,1031.34
2017-05-16T06:08:34.233Z,1031.37
2017-05-16T06:09:36.085Z,1031.36
2017-05-16T06:10:38.135Z,1031.35
2017-05-16T06:11:39.987Z,1031.36
2017-05-16T06:12:41.837Z,1031.34
2017-05-16T06:13:43.680Z,1031.36
2017-05-16T06:14:45.508Z,1031.35
2017-05-16T06:15:47.359Z,1031.35
2017-05-16T06:16:49.182Z,1031.35
2017-05-16T06:17:51.005Z,1031.35
2017-05-16T06:18:52.831Z,1031.37
2017-05-16T06:19:54.659Z,1031.36
2017-05-16T06:20:56.537Z,1031.35
2017-05-16T06:21:58.386Z,1031.37
2017-05-16T06:23:00.212Z,1031.40
2017-05-16T06:24:02.055Z,1031.40
2017-05-16T06:25:03.897Z,1031.43
2017-05-16T06:26:05.931Z,1031.44
2017-05-16T06:27:07.786Z,1031.47
2017-05-16T06:28:09.629Z,1031.48
2017-05-16T06:29:11.454Z,1031.49
2017-05-16T06:30:13.281Z,1031.50
2017-05-16T06:31:15.130Z,1031.49
2017-05-16T06:32:16.980Z,1031.48
2017-05-16T06:33:18.832Z,1031.53
2017-05-16T06:34:20.681Z,1031.56
2017-05-16T06:35:22.531Z,1031.55
2017-05-16T06:36:24.532Z,1031.59
2017-05-16T06:37:26.344Z,1031.57
2017-05-16T06:38:28.167Z,1031.61
2017-05-16T06:39:29.995Z,1031.61
2017-05-16T06:40:31.821Z,1031.64
2017-05-16T06:41:33.671Z,1031.59
2017-05-16T06:42:35.495Z,1031.60
2017-05-16T06:43:37.324Z,1031.61
2017-05-16T06:44:39.138Z,1031.57
2017-05-16T06:45:40.970Z,1031.56
2017-05-16T06:46:42.819Z,1031.53
2017-05-16T06:47:44.671Z,1031.47
2017-05-16T06:48:46.521Z,1031.48
2017-05-16T06:49:48.350Z,1031.46
2017-05-16T06:50:50.175Z,1031.46
2017-05-16T06:51:52.302Z,1031.46
2017-05-16T06:52:54.155Z,1031.47
2017-05-16T06:53:56.001Z,1031.49
2017-05-16T06:54:57.855Z,1031.52
2017-05-16T06:55:59.675Z,1031.53
2017-05-16T06:57:01.558Z,1031.50
2017-05-16T06:58:03.378Z,1031.52
2017-05-16T06:59:05.199Z,1031.52
2017-05-16T07:00:07.051Z,1031.51
2017-05-16T07:01:08.905Z,1031.53
2017-05-16T07:02:10.752Z,1031.52
2017-05-16T07:03:12.607Z,1031.52
2017-05-16T07:04:14.431Z,1031.46
2017-05-16T07:05:16.260Z,1031.48
2017-05-16T07:06:18.083Z,1031.45
2017-05-16T07:07:23.161Z,1031.49
2017-05-16T07:08:24.987Z,1031.49
2017-05-16T07:09:26.846Z,1031.51
2017-05-16T07:10:28.693Z,1031.54
2017-05-16T07:11:30.519Z,1031.51
2017-05-16T07:12:32.476Z,1031.52
2017-05-16T07:13:34.323Z,1031.50
2017-05-16T07:14:36.151Z,1031.50
2017-05-16T07:15:38.005Z,1031.52
2017-05-16T07:16:39.859Z,1031.52
2017-05-16T07:17:41.899Z,1031.51
2017-05-16T07:18:43.731Z,1031.51
2017-05-16T07:19:45.555Z,1031.51
2017-05-16T07:20:47.406Z,1031.50
2017-05-16T07:21:49.257Z,1031.44
2017-05-16T07:22:51.108Z,1031.47
2017-05-16T07:23:52.936Z,1031.46
2017-05-16T07:24:54.784Z,1031.47
2017-05-16T07:25:56.610Z,1031.46
2017-05-16T07:26:58.464Z,1031.49
2017-05-16T07:28:00.313Z,1031.52
2017-05-16T07:29:02.165Z,1031.48
2017-05-16T07:30:04.016Z,1031.51
2017-05-16T07:31:05.847Z,1031.53
2017-05-16T07:32:07.701Z,1031.55
2017-05-16T07:33:09.548Z,1031.59
2017-05-16T07:34:11.373Z,1031.61
2017-05-16T07:35:13.197Z,1031.59
2017-05-16T07:36:15.049Z,1031.61
2017-05-16T07:37:16.871Z,1031.61
2017-05-16T07:38:18.749Z,1031.55
2017-05-16T07:39:20.602Z,1031.55
2017-05-16T07:40:22.454Z,1031.56
2017-05-16T07:41:24.304Z,1031.57
2017-05-16T07:42:26.155Z,1031.60
2017-05-16T07:43:28.313Z,1031.59
2017-05-16T07:44:30.163Z,1031.63
2017-05-16T07:45:32.017Z,1031.65
2017-05-16T07:46:33.867Z,1031.66
2017-05-16T07:47:35.720Z,1031.68
2017-05-16T07:48:37.586Z,1031.69
2017-05-16T07:49:39.416Z,1031.75
2017-05-16T07:50:41.245Z,1031.80
2017-05-16T07:51:43.101Z,1031.77
2017-05-16T07:52:44.927Z,1031.79
2017-05-16T07:53:46.832Z,1031.76
2017-05-16T07:54:48.682Z,1031.78
2017-05-16T07:55:50.536Z,1031.79
2017-05-16T07:56:52.364Z,1031.84
2017-05-16T07:57:54.193Z,1031.87
2017-05-16T07:58:56.499Z,1031.92
2017-05-16T07:59:58.327Z,1031.92
2017-05-16T08:01:00.171Z,1031.99
2017-05-16T08:02:02.006Z,1032.02
2017-05-16T08:03:03.867Z,1032.01
2017-05-16T08:04:06.020Z,1032.06
2017-05-16T08:05:07.879Z,1032.07
2017-05-16T08:06:09.724Z,1032.02
2017-05-16T08:07:11.583Z,1032.07
2017-05-16T08:08:13.435Z,1032.09
2017-05-16T08:09:15.314Z,1032.09
2017-05-16T08:10:17.169Z,1032.10
2017-05-16T08:11:19.020Z,1032.06
2017-05-16T08:12:20.874Z,1032.05
2017-05-16T08:13:22.709Z,1032.02
2017-05-16T08:14:24.663Z,1032.00
2017-05-16T08:15:26.498Z,1031.97
2017-05-16T08:16:28.350Z,1031.95
2017-05-16T08:17:30.180Z,1031.94
2017-05-16T08:18:32.010Z,1031.94
2017-05-16T08:19:34.042Z,1031.95
2017-05-16T08:20:35.870Z,1031.96
2017-05-16T08:21:37.723Z,1031.90
2017-05-16T08:22:39.551Z,1031.87
2017-05-16T08:23:41.384Z,1031.80
2017-05-16T08:24:43.230Z,1031.79
2017-05-16T08:25:45.063Z,1031.79
2017-05-16T08:26:46.895Z,1031.74
2017-05-16T08:27:48.720Z,1031.73
2017-05-16T08:28:50.549Z,1031.74
2017-05-16T08:29:52.431Z,1031.69
2017-05-16T08:30:54.291Z,1031.72
2017-05-16T08:31:56.147Z,1031.75
2017-05-16T08:32:58.005Z,1031.73
2017-05-16T08:33:59.863Z,1031.73
2017-05-16T08:35:01.737Z,1031.73
2017-05-16T08:36:03.593Z,1031.75
2017-05-16T08:37:05.447Z,1031.76
2017-05-16T08:38:07.275Z,1031.77
2017-05-16T08:39:09.131Z,1031.75
2017-05-16T08:40:11.009Z,1031.80
2017-05-16T08:41:12.834Z,1031.80
2017-05-16T08:42:14.670Z,1031.77
2017-05-16T08:43:16.521Z,1031.78
2017-05-16T08:44:18.368Z,1031.71
2017-05-16T08:45:20.251Z,1031.67
2017-05-16T08:46:22.104Z,1031.60
2017-05-16T08:47:23.957Z,1031.64
2017-05-16T08:48:25.787Z,1031.59
2017-05-16T08:49:27.641Z,1031.61
2017-05-16T08:50:29.519Z,1031.71
2017-05-16T08:51:31.349Z,1031.68
2017-05-16T08:52:33.175Z,1031.61
2017-05-16T08:53:35.029Z,1031.67
2017-05-16T08:54:36.884Z,1031.60
2017-05-16T08:55:38.836Z,1031.66
2017-05-16T08:56:40.695Z,1031.65
2017-05-16T08:57:42.546Z,1031.71
2017-05-16T08:58:44.400Z,1031.65
2017-05-16T08:59:46.317Z,1031.75
2017-05-16T09:00:48.430Z,1031.73
2017-05-16T09:01:50.257Z,1031.76
2017-05-16T09:02:52.085Z,1031.78
2017-05-16T09:03:53.911Z,1031.74
2017-05-16T09:04:55.743Z,1031.73
2017-05-16T09:05:57.621Z,1031.77
2017-05-16T09:06:59.453Z,1031.81
2017-05-16T09:08:01.276Z,1031.82
2017-05-16T09:09:03.113Z,1031.78
2017-05-16T09:10:04.966Z,1031.68
2017-05-16T09:11:06.817Z,1031.71
2017-05-16T09:12:08.646Z,1031.75
2017-05-16T09:13:10.478Z,1031.74
2017-05-16T09:14:12.336Z,1031.70
2017-05-16T09:15:14.180Z,1031.68
2017-05-16T09:16:16.210Z,1031.75
2017-05-16T09:17:18.039Z,1031.69
2017-05-16T09:18:19.875Z,1031.74
2017-05-16T09:19:21.726Z,1031.76
2017-05-16T09:20:23.587Z,1031.74
2017-05-16T09:21:25.442Z,1031.78
2017-05-16T09:22:27.297Z,1031.72
2017-05-16T09:23:29.154Z,1031.71
2017-05-16T09:24:31.011Z,1031.70
2017-05-16T09:25:32.859Z,1031.79
2017-05-16T09:26:35.090Z,1031.76
2017-05-16T09:27:36.919Z,1031.73
2017-05-16T09:28:38.778Z,1031.71
2017-05-16T09:29:40.631Z,1031.70
2017-05-16T09:30:42.489Z,1031.63
2017-05-16T09:31:44.411Z,1031.60
2017-05-16T09:32:46.243Z,1031.57
2017-05-16T09:33:48.096Z,1031.55
2017-05-16T09:34:49.924Z,1031.55
2017-05-16T09:35:51.774Z,1031.54
2017-05-16T09:36:54.011Z,1031.62
2017-05-16T09:37:55.863Z,1031.60
2017-05-16T09:38:57.700Z,1031.63
2017-05-16T09:39:59.522Z,1031.58
2017-05-16T09:41:01.359Z,1031.60
2017-05-16T09:42:03.416Z,1031.63
2017-05-16T09:43:05.271Z,1031.59
2017-05-16T09:44:07.125Z,1031.57
2017-05-16T09:45:08.984Z,1031.53
2017-05-16T09:46:10.834Z,1031.57
2017-05-16T09:47:12.712Z,1031.55
2017-05-16T09:48:14.537Z,1031.49
2017-05-16T09:49:16.365Z,1031.50
2017-05-16T09:50:18.196Z,1031.50
2017-05-16T09:51:20.034Z,1031.48
2017-05-16T09:52:21.990Z,1031.53
2017-05-16T09:53:23.849Z,1031.50
2017-05-16T09:54:25.700Z,1031.59
2017-05-16T09:55:27.554Z,1031.63
2017-05-16T09:56:29.389Z,1031.65
2017-05-16T09:57:31.448Z,1031.60
2017-05-16T09:58:33.298Z,1031.59
2017-05-16T09:59:35.157Z,1031.51
2017-05-16T10:00:37.012Z,1031.52
2017-05-16T10:01:38.863Z,1031.56
2017-05-16T10:02:40.715Z,1031.58
2017-05-16T10:03:42.549Z,1031.57
2017-05-16T10:04:44.401Z,1031.60
2017-05-16T10:05:46.235Z,1031.57
2017-05-16T10:06:48.064Z,1031.55
2017-05-16T10:07:49.945Z,1031.50
2017-05-16T10:08:51.777Z,1031.50
2017-05-16T10:09:53.605Z,1031.50
2017-05-16T10:10:55.434Z,1031.46
2017-05-16T10:11:57.291Z,1031.41
2017-05-16T10:12:59.222Z,1031.38
2017-05-16T10:14:01.072Z,1031.38
2017-05-16T10:15:02.904Z,1031.38
2017-05-16T10:16:04.761Z,1031.37
2017-05-16T10:17:06.623Z,1031.34
2017-05-16T10:18:08.677Z,1031.32
2017-05-16T10:19:10.531Z,1031.33
2017-05-16T10:20:12.397Z,1031.31
2017-05-16T10:21:14.221Z,1031.32
2017-05-16T10:22:16.075Z,1031.35
2017-05-16T10:23:17.932Z,1031.42
2017-05-16T10:24:19.762Z,1031.43
2017-05-16T10:25:21.596Z,1031.41
2017-05-16T10:26:23.450Z,1031.39
2017-05-16T10:27:25.313Z,1031.46
2017-05-16T10:28:27.194Z,1031.48
2017-05-16T10:29:29.045Z,1031.43
2017-05-16T10:30:30.905Z,1031.51
2017-05-16T10:31:32.755Z,1031.47
2017-05-16T10:32:34.614Z,1031.50
2017-05-16T10:33:36.543Z,1031.50
2017-05-16T10:34:38.398Z,1031.45
2017-05-16T10:36:16.655Z,1031.42
2017-05-16T10:37:18.482Z,1031.41
2017-05-16T10:38:20.342Z,1031.35
2017-05-16T10:39:22.498Z,1031.39
2017-05-16T10:40:24.354Z,1031.35
2017-05-16T10:41:26.212Z,1031.29
2017-05-16T10:42:28.072Z,1031.29
2017-05-16T10:43:29.929Z,1031.25
2017-05-16T10:44:31.811Z,1031.24
2017-05-16T10:45:33.664Z,1031.23
2017-05-16T10:46:35.498Z,1031.21
2017-05-16T10:47:37.357Z,1031.21
2017-05-16T10:48:39.212Z,1031.22
2017-05-16T10:49:41.068Z,1031.19
2017-05-16T10:50:42.922Z,1031.15
2017-05-16T10:51:44.777Z,1031.15
2017-05-16T10:52:46.632Z,1031.17
2017-05-16T10:53:48.469Z,1031.18
2017-05-16T10:54:53.436Z,1031.14
2017-05-16T10:55:55.282Z,1031.14
2017-05-16T10:56:57.116Z,1031.15
2017-05-16T10:57:58.980Z,1031.16
2017-05-16T10:59:00.829Z,1031.14
2017-05-16T11:00:02.857Z,1031.14
2017-05-16T11:01:04.720Z,1031.15
2017-05-16T11:02:06.581Z,1031.15
2017-05-16T11:03:08.434Z,1031.14
2017-05-16T11:04:10.290Z,1031.19
2017-05-16T11:05:12.148Z,1031.23
2017-05-16T11:06:13.972Z,1031.18
2017-05-16T11:07:15.803Z,1031.17
2017-05-16T11:08:17.631Z,1031.23
2017-05-16T11:09:19.462Z,1031.18
2017-05-16T11:10:21.492Z,1031.19
2017-05-16T11:11:23.354Z,1031.21
2017-05-16T11:12:25.183Z,1031.16
2017-05-16T11:13:27.043Z,1031.12
2017-05-16T11:14:28.874Z,1031.08
2017-05-16T11:15:30.932Z,1031.11
2017-05-16T11:16:32.759Z,1031.10
2017-05-16T11:17:34.612Z,1031.09
2017-05-16T11:18:36.445Z,1031.07
2017-05-16T11:19:38.281Z,1031.05
2017-05-16T11:20:40.137Z,1031.03
2017-05-16T11:21:41.970Z,1031.02
2017-05-16T11:22:43.823Z,1031.03
2017-05-16T11:23:45.654Z,1031.01
2017-05-16T11:24:47.519Z,1031.04
2017-05-16T11:25:49.475Z,1031.00
2017-05-16T11:26:51.328Z,1030.99
2017-05-16T11:27:53.185Z,1031.01
2017-05-16T11:28:55.040Z,1030.98
2017-05-16T11:29:56.873Z,1031.00
2017-05-16T11:30:58.726Z,1031.01
2017-05-16T11:32:00.563Z,1031.06
2017-05-16T11:33:02.395Z,1031.04
2017-05-16T11:34:04.242Z,1031.01
2017-05-16T11:35:06.075Z,1030.98
2017-05-16T11:36:08.333Z,1030.97
2017-05-16T11:37:10.189Z,1030.95
2017-05-16T11:38:12.046Z,1030.92
2017-05-16T11:39:13.909Z,1030.89
2017-05-16T11:40:15.761Z,1030.87
2017-05-16T11:41:17.642Z,1030.82
2017-05-16T11:42:19.467Z,1030.83
2017-05-16T11:43:21.304Z,1030.83
2017-05-16T11:44:23.156Z,1030.85
2017-05-16T11:45:25.019Z,1030.86
2017-05-16T11:46:26.869Z,1030.86
2017-05-16T11:47:28.728Z,1030.88
2017-05-16T11:48:30.583Z,1030.95
2017-05-16T11:49:32.438Z,1030.89
2017-05-16T11:50:34.298Z,1030.94
2017-05-16T11:51:36.253Z,1030.87
2017-05-16T11:52:38.078Z,1030.84
2017-05-16T11:53:39.906Z,1030.84
2017-05-16T11:54:41.738Z,1030.81
2017-05-16T11:55:43.593Z,1030.90
2017-05-16T11:56:45.450Z,1030.87
2017-05-16T11:57:47.297Z,1030.88
2017-05-16T11:58:49.129Z,1030.91
2017-05-16T11:59:50.983Z,1030.89
2017-05-16T12:00:52.814Z,1030.87
2017-05-16T12:01:54.693Z,1030.89
2017-05-16T12:02:56.553Z,1030.90
2017-05-16T12:03:58.383Z,1030.88
2017-05-16T12:05:00.235Z,1030.86
2017-05-16T12:06:02.061Z,1030.86
2017-05-16T12:07:04.013Z,1030.81
2017-05-16T12:08:05.851Z,1030.75
2017-05-16T12:09:07.705Z,1030.75
2017-05-16T12:10:09.562Z,1030.74
2017-05-16T12:11:11.424Z,1030.73
2017-05-16T12:12:13.280Z,1030.73
2017-05-16T12:13:15.138Z,1030.67
2017-05-16T12:14:16.969Z,1030.66
2017-05-16T12:15:18.826Z,1030.63
2017-05-16T12:16:20.686Z,1030.59
2017-05-16T12:17:22.737Z,1030.63
2017-05-16T12:18:24.680Z,1030.60
2017-05-16T12:19:26.579Z,1030.62
2017-05-16T12:20:28.434Z,1030.65
2017-05-16T12:21:30.266Z,1030.70
2017-05-16T12:22:32.148Z,1030.72
2017-05-16T12:23:34.007Z,1030.63
2017-05-16T12:24:35.853Z,1030.64
2017-05-16T12:25:37.689Z,1030.64
2017-05-16T12:26:39.546Z,1030.55
2017-05-16T12:27:41.401Z,1030.55
2017-05-16T12:28:43.263Z,1030.58